createdAt,value
2018-08-16T00:00:27.481Z,15.80
2018-08-16T00:02:57.115Z,15.90
2018-08-16T00:05:26.717Z,15.90
2018-08-16T00:07:55.371Z,15.80
2018-08-16T00:10:29.055Z,15.80
2018-08-16T00:13:01.678Z,15.80
2018-08-16T00:15:36.833Z,15.80
2018-08-16T00:18:21.725Z,15.70
2018-08-16T00:21:00.235Z,15.70
2018-08-16T00:23:28.949Z,15.70
2018-08-16T00:25:57.594Z,15.70
2018-08-16T00:28:25.950Z,15.70
2018-08-16T00:30:55.593Z,15.70
2018-08-16T00:33:26.126Z,15.70
2018-08-16T00:35:59.169Z,15.70
2018-08-16T00:38:29.649Z,15.60
2018-08-16T00:41:00.177Z,15.60
2018-08-16T00:43:40.521Z,15.60
2018-08-16T00:46:11.185Z,15.50
2018-08-16T00:48:40.690Z,15.50
2018-08-16T00:51:11.282Z,15.50
2018-08-16T00:53:40.014Z,15.50
2018-08-16T00:56:10.467Z,15.50
2018-08-16T00:58:39.153Z,15.50
2018-08-16T01:01:11.690Z,15.50
2018-08-16T01:03:42.363Z,15.40
2018-08-16T01:06:11.028Z,15.40
2018-08-16T01:08:43.060Z,15.40
2018-08-16T01:11:11.511Z,15.40
2018-08-16T01:13:44.551Z,15.30
2018-08-16T01:16:14.470Z,15.30
2018-08-16T01:18:44.092Z,15.30
2018-08-16T01:21:13.886Z,15.30
2018-08-16T01:23:48.121Z,15.30
2018-08-16T01:26:17.721Z,15.20
2018-08-16T01:28:59.605Z,15.20
2018-08-16T01:31:29.361Z,15.20
2018-08-16T01:33:58.847Z,15.20
2018-08-16T01:36:29.423Z,15.20
2018-08-16T01:39:18.339Z,15.10
2018-08-16T01:41:47.058Z,15.10
2018-08-16T01:44:27.115Z,15.10
2018-08-16T01:46:57.597Z,15.10
2018-08-16T01:49:35.923Z,15.10
2018-08-16T01:52:09.195Z,15.10
2018-08-16T01:54:40.888Z,15.10
2018-08-16T01:57:20.315Z,15.10
2018-08-16T01:59:53.049Z,15.10
2018-08-16T02:02:22.618Z,15.10
2018-08-16T02:04:51.357Z,15.10
2018-08-16T02:07:20.379Z,15.10
2018-08-16T02:09:50.815Z,15.10
2018-08-16T02:12:19.541Z,15.00
2018-08-16T02:14:50.075Z,15.00
2018-08-16T02:17:18.498Z,15.00
2018-08-16T02:19:58.765Z,15.00
2018-08-16T02:22:29.351Z,15.00
2018-08-16T02:25:01.781Z,15.00
2018-08-16T02:27:34.660Z,15.00
2018-08-16T02:30:05.429Z,15.00
2018-08-16T02:32:36.421Z,15.00
2018-08-16T02:35:16.633Z,15.00
2018-08-16T02:37:50.921Z,14.90
2018-08-16T02:40:42.967Z,15.00
2018-08-16T02:43:19.029Z,14.90
2018-08-16T02:45:58.449Z,14.90
2018-08-16T02:48:39.724Z,14.90
2018-08-16T02:54:01.772Z,14.90
2018-08-16T02:56:32.259Z,14.90
2018-08-16T02:59:05.273Z,14.90
2018-08-16T03:01:43.437Z,14.90
2018-08-16T03:04:14.563Z,14.90
2018-08-16T03:06:44.193Z,14.90
2018-08-16T03:09:12.873Z,14.90
2018-08-16T03:11:45.623Z,14.90
2018-08-16T03:14:14.189Z,14.90
2018-08-16T03:16:44.785Z,14.90
2018-08-16T03:19:21.452Z,14.90
2018-08-16T03:21:55.005Z,14.90
2018-08-16T03:24:39.664Z,14.90
2018-08-16T03:27:31.107Z,14.90
2018-08-16T03:30:01.931Z,14.90
2018-08-16T03:32:48.447Z,14.90
2018-08-16T03:35:19.096Z,14.80
2018-08-16T03:38:00.234Z,14.80
2018-08-16T03:40:41.831Z,14.80
2018-08-16T03:43:20.975Z,14.80
2018-08-16T03:48:42.600Z,14.70
2018-08-16T03:51:12.299Z,14.70
2018-08-16T03:53:48.289Z,14.70
2018-08-16T03:56:34.456Z,14.70
2018-08-16T03:59:06.288Z,14.70
2018-08-16T04:01:40.211Z,14.70
2018-08-16T04:04:10.748Z,14.70
2018-08-16T04:06:42.793Z,14.70
2018-08-16T04:09:16.437Z,14.70
2018-08-16T04:11:45.128Z,14.80
2018-08-16T04:14:16.153Z,14.80
2018-08-16T04:16:48.284Z,14.80
2018-08-16T04:19:21.015Z,14.80
2018-08-16T04:21:52.746Z,14.80
2018-08-16T04:24:21.413Z,14.70
2018-08-16T04:26:50.232Z,14.70
2018-08-16T04:29:18.911Z,14.70
2018-08-16T04:31:47.543Z,14.70
2018-08-16T04:34:19.700Z,14.70
2018-08-16T04:36:48.356Z,14.90
2018-08-16T04:39:19.060Z,15.00
2018-08-16T04:41:47.775Z,15.10
2018-08-16T04:44:16.090Z,15.20
2018-08-16T04:46:45.806Z,15.30
2018-08-16T04:49:19.673Z,15.40
2018-08-16T04:51:51.686Z,15.50
2018-08-16T04:54:20.207Z,15.60
2018-08-16T04:56:49.753Z,15.60
2018-08-16T04:59:19.347Z,15.70
2018-08-16T05:01:53.587Z,15.70
2018-08-16T05:04:33.016Z,15.80
2018-08-16T05:07:06.100Z,15.80
2018-08-16T05:09:34.781Z,15.90
2018-08-16T05:12:04.295Z,15.90
2018-08-16T05:14:36.071Z,15.90
2018-08-16T05:17:05.854Z,15.90
2018-08-16T05:19:38.485Z,15.90
2018-08-16T05:22:07.936Z,15.90
2018-08-16T05:24:36.694Z,15.80
2018-08-16T05:27:10.212Z,15.80
2018-08-16T05:29:44.409Z,15.70
2018-08-16T05:32:16.462Z,15.70
2018-08-16T05:34:45.141Z,15.70
2018-08-16T05:37:19.522Z,15.70
2018-08-16T05:39:48.088Z,15.80
2018-08-16T05:42:16.482Z,15.90
2018-08-16T05:44:47.040Z,15.90
2018-08-16T05:47:20.564Z,16.00
2018-08-16T05:49:48.973Z,16.10
2018-08-16T05:52:17.364Z,16.10
2018-08-16T05:54:46.046Z,16.10
2018-08-16T05:57:22.347Z,16.10
2018-08-16T05:59:59.134Z,16.20
2018-08-16T06:02:32.362Z,16.30
2018-08-16T06:05:04.714Z,16.40
2018-08-16T06:07:38.982Z,16.50
2018-08-16T06:10:09.150Z,16.60
2018-08-16T06:12:37.630Z,16.70
2018-08-16T06:15:11.213Z,16.80
2018-08-16T06:17:40.796Z,17.00
2018-08-16T06:20:15.879Z,17.10
2018-08-16T06:22:50.118Z,17.30
2018-08-16T06:25:27.100Z,17.40
2018-08-16T06:28:15.455Z,17.60
2018-08-16T06:30:44.160Z,17.70
2018-08-16T06:33:25.450Z,17.80
2018-08-16T06:35:59.307Z,18.00
2018-08-16T06:38:40.346Z,18.00
2018-08-16T06:41:31.243Z,18.10
2018-08-16T06:44:04.801Z,18.20
2018-08-16T06:46:33.241Z,18.30
2018-08-16T06:49:01.715Z,18.30
2018-08-16T06:51:30.181Z,18.40
2018-08-16T06:53:58.626Z,18.50
2018-08-16T06:56:27.065Z,18.60
2018-08-16T06:58:55.595Z,18.70
2018-08-16T07:01:23.952Z,18.80
2018-08-16T07:03:52.378Z,18.90
2018-08-16T07:06:20.733Z,19.00
2018-08-16T07:08:49.081Z,19.00
2018-08-16T07:11:17.492Z,19.00
2018-08-16T07:13:45.886Z,19.10
2018-08-16T07:16:14.291Z,19.20
2018-08-16T07:18:42.687Z,19.20
2018-08-16T07:21:11.063Z,19.20
2018-08-16T07:23:39.403Z,19.20
2018-08-16T07:26:07.965Z,19.30
2018-08-16T07:28:38.218Z,19.30
2018-08-16T07:31:06.657Z,19.40
2018-08-16T07:33:35.033Z,19.50
2018-08-16T07:36:03.437Z,19.60
2018-08-16T07:38:31.854Z,19.70
2018-08-16T07:41:00.210Z,19.80
2018-08-16T07:43:28.737Z,19.80
2018-08-16T07:45:57.239Z,19.90
2018-08-16T07:48:25.540Z,20.00
2018-08-16T07:50:53.905Z,20.20
2018-08-16T07:53:22.283Z,20.20
2018-08-16T07:55:50.695Z,20.30
2018-08-16T07:58:19.100Z,20.40
2018-08-16T08:00:47.701Z,20.50
2018-08-16T08:03:16.097Z,20.60
2018-08-16T08:05:46.240Z,20.70
2018-08-16T08:08:14.677Z,20.80
2018-08-16T08:10:43.130Z,20.90
2018-08-16T08:13:11.509Z,20.90
2018-08-16T08:15:39.952Z,20.90
2018-08-16T08:18:08.360Z,21.00
2018-08-16T08:20:36.805Z,21.40
2018-08-16T08:23:05.297Z,21.60
2018-08-16T08:25:33.714Z,22.00
2018-08-16T08:28:02.143Z,22.30
2018-08-16T08:30:30.563Z,22.30
2018-08-16T08:32:59.066Z,22.40
2018-08-16T08:35:27.478Z,22.50
2018-08-16T08:38:15.570Z,22.40
2018-08-16T08:40:43.998Z,22.30
2018-08-16T08:43:22.539Z,22.40
2018-08-16T08:45:50.951Z,22.20
2018-08-16T08:48:20.763Z,22.20
2018-08-16T08:50:55.491Z,22.20
2018-08-16T08:55:40.546Z,22.20
2018-08-16T08:58:20.477Z,22.10
2018-08-16T09:00:54.212Z,22.00
2018-08-16T09:03:23.831Z,22.00
2018-08-16T09:05:52.557Z,21.90
2018-08-16T09:08:21.351Z,22.00
2018-08-16T09:11:06.533Z,22.30
2018-08-16T09:13:48.173Z,22.50
2018-08-16T09:16:18.979Z,22.80
2018-08-16T09:18:48.369Z,23.00
2018-08-16T09:21:16.915Z,23.00
2018-08-16T09:26:49.821Z,23.00
2018-08-16T09:32:22.313Z,23.50
2018-08-16T09:35:03.199Z,23.60
2018-08-16T09:37:39.257Z,23.60
2018-08-16T09:40:07.687Z,23.60
2018-08-16T09:42:39.439Z,23.60
2018-08-16T09:45:19.273Z,23.60
2018-08-16T09:48:04.435Z,23.60
2018-08-16T09:50:39.354Z,23.60
2018-08-16T09:53:08.054Z,23.60
2018-08-16T09:55:39.801Z,23.50
2018-08-16T09:58:08.485Z,23.40
2018-08-16T10:00:53.802Z,23.30
2018-08-16T10:03:22.459Z,23.40
2018-08-16T10:05:51.119Z,23.50
2018-08-16T10:08:25.019Z,23.60
2018-08-16T10:10:53.727Z,23.60
2018-08-16T10:13:27.342Z,23.60
2018-08-16T10:15:56.040Z,23.60
2018-08-16T10:18:49.201Z,23.60
2018-08-16T10:21:22.862Z,23.60
2018-08-16T10:23:51.557Z,23.60
2018-08-16T10:26:23.328Z,23.60
2018-08-16T10:28:59.201Z,23.60
2018-08-16T10:31:31.132Z,23.70
2018-08-16T10:34:01.503Z,23.70
2018-08-16T10:36:42.024Z,23.90
2018-08-16T10:39:26.613Z,24.10
2018-08-16T10:42:00.569Z,24.20
2018-08-16T10:44:34.910Z,24.20
2018-08-16T10:50:05.087Z,24.20
2018-08-16T10:52:34.631Z,24.40
2018-08-16T10:55:11.301Z,24.50
2018-08-16T10:57:56.243Z,24.60
2018-08-16T11:00:25.947Z,24.70
2018-08-16T11:03:08.042Z,24.50
2018-08-16T11:05:46.301Z,24.40
2018-08-16T11:08:16.863Z,24.50
2018-08-16T11:10:45.667Z,24.50
2018-08-16T11:13:14.210Z,24.40
2018-08-16T11:15:46.330Z,24.50
2018-08-16T11:18:18.340Z,24.50
2018-08-16T11:20:57.167Z,24.50
2018-08-16T11:23:44.263Z,24.70
2018-08-16T11:26:32.924Z,24.80
2018-08-16T11:29:11.803Z,24.80
2018-08-16T11:31:42.271Z,24.90
2018-08-16T11:34:11.661Z,25.10
2018-08-16T11:36:47.953Z,25.30
2018-08-16T11:39:16.663Z,25.30
2018-08-16T11:41:45.341Z,25.10
2018-08-16T11:44:14.089Z,24.90
2018-08-16T11:46:42.729Z,25.00
2018-08-16T11:49:12.311Z,25.10
2018-08-16T11:51:52.369Z,25.10
2018-08-16T11:54:22.901Z,25.10
2018-08-16T11:56:52.525Z,25.20
2018-08-16T11:59:21.202Z,25.40
2018-08-16T12:02:08.348Z,25.70
2018-08-16T12:04:38.442Z,25.70
2018-08-16T12:07:29.722Z,25.40
2018-08-16T12:10:09.978Z,25.10
2018-08-16T12:15:50.089Z,24.80
2018-08-16T12:18:31.315Z,24.80
2018-08-16T12:21:01.956Z,24.90
2018-08-16T12:23:44.496Z,25.00
2018-08-16T12:26:20.599Z,25.10
2018-08-16T12:28:53.810Z,24.90
2018-08-16T12:31:31.973Z,25.00
2018-08-16T12:34:06.537Z,25.20
2018-08-16T12:36:38.617Z,25.10
2018-08-16T12:39:11.459Z,25.00
2018-08-16T12:41:44.277Z,25.00
2018-08-16T12:44:19.349Z,25.10
2018-08-16T12:46:47.729Z,25.20
2018-08-16T12:49:16.137Z,25.20
2018-08-16T12:51:44.900Z,25.00
2018-08-16T12:54:25.871Z,25.10
2018-08-16T12:57:04.341Z,25.10
2018-08-16T12:59:33.074Z,24.90
2018-08-16T13:02:08.582Z,24.70
2018-08-16T13:04:40.581Z,24.50
2018-08-16T13:07:10.778Z,24.50
2018-08-16T13:09:39.522Z,24.50
2018-08-16T13:12:20.091Z,24.50
2018-08-16T13:15:01.671Z,24.60
2018-08-16T13:17:31.279Z,24.80
2018-08-16T13:20:11.142Z,24.90
2018-08-16T13:22:49.838Z,25.00
2018-08-16T13:25:21.943Z,25.20
2018-08-16T13:27:50.647Z,25.30
2018-08-16T13:30:25.749Z,25.50
2018-08-16T13:33:06.687Z,25.70
2018-08-16T13:35:53.575Z,26.00
2018-08-16T13:38:44.966Z,26.10
2018-08-16T13:41:14.615Z,26.10
2018-08-16T13:43:54.281Z,26.00
2018-08-16T13:46:22.747Z,25.90
2018-08-16T13:48:51.635Z,25.60
2018-08-16T13:51:20.141Z,25.50
2018-08-16T13:53:53.451Z,25.40
2018-08-16T13:56:25.232Z,25.30
2018-08-16T13:58:54.766Z,25.30
2018-08-16T14:01:24.004Z,25.40
2018-08-16T14:03:54.646Z,25.50
2018-08-16T14:06:23.308Z,25.60
2018-08-16T14:08:58.142Z,25.90
2018-08-16T14:11:26.803Z,26.00
2018-08-16T14:13:56.470Z,26.00
2018-08-16T14:16:33.105Z,25.90
2018-08-16T14:19:05.291Z,25.80
2018-08-16T14:21:33.774Z,25.70
2018-08-16T14:24:12.948Z,25.80
2018-08-16T14:26:42.544Z,25.80
2018-08-16T14:29:10.931Z,25.90
2018-08-16T14:31:40.535Z,26.00
2018-08-16T14:34:21.515Z,26.10
2018-08-16T14:37:00.079Z,26.20
2018-08-16T14:39:30.615Z,26.10
2018-08-16T14:42:03.905Z,26.30
2018-08-16T14:44:50.324Z,26.40
2018-08-16T14:47:31.973Z,26.40
2018-08-16T14:50:12.019Z,26.30
2018-08-16T14:52:42.526Z,26.10
2018-08-16T14:55:30.893Z,26.00
2018-08-16T14:58:06.286Z,25.90
2018-08-16T15:00:39.987Z,25.80
2018-08-16T15:03:10.483Z,25.90
2018-08-16T15:05:39.135Z,26.00
2018-08-16T15:08:08.240Z,26.00
2018-08-16T15:10:36.841Z,26.00
2018-08-16T15:13:05.277Z,25.90
2018-08-16T15:15:39.731Z,25.90
2018-08-16T15:18:09.654Z,26.00
2018-08-16T15:20:38.333Z,26.00
2018-08-16T15:23:08.011Z,26.00
2018-08-16T15:25:39.777Z,26.10
2018-08-16T15:28:14.377Z,26.20
2018-08-16T15:30:42.924Z,26.20
2018-08-16T15:33:27.874Z,26.20
2018-08-16T15:35:57.555Z,26.20
2018-08-16T15:38:37.607Z,26.20
2018-08-16T15:41:09.521Z,26.10
2018-08-16T15:43:38.698Z,26.10
2018-08-16T15:46:17.773Z,26.20
2018-08-16T15:48:49.510Z,26.20
2018-08-16T15:51:20.136Z,26.10
2018-08-16T15:53:54.142Z,26.10
2018-08-16T15:56:22.696Z,26.00
2018-08-16T15:58:51.395Z,25.90
2018-08-16T16:01:22.153Z,26.00
2018-08-16T16:03:52.741Z,26.00
2018-08-16T16:06:34.871Z,26.10
2018-08-16T16:09:03.318Z,26.10
2018-08-16T16:11:33.832Z,26.00
2018-08-16T16:14:04.558Z,26.00
2018-08-16T16:16:33.138Z,26.00
2018-08-16T16:19:01.718Z,26.10
2018-08-16T16:21:30.480Z,26.30
2018-08-16T16:23:59.260Z,26.30
2018-08-16T16:26:27.924Z,26.30
2018-08-16T16:28:56.668Z,26.30
2018-08-16T16:31:25.297Z,26.10
2018-08-16T16:33:53.989Z,26.10
2018-08-16T16:36:22.575Z,26.20
2018-08-16T16:39:02.031Z,26.10
2018-08-16T16:41:37.469Z,26.00
2018-08-16T16:44:06.192Z,26.10
2018-08-16T16:46:35.294Z,26.00
2018-08-16T16:49:16.917Z,25.80
2018-08-16T16:51:50.060Z,25.80
2018-08-16T16:54:18.764Z,25.60
2018-08-16T16:56:49.592Z,25.40
2018-08-16T16:59:21.348Z,25.40
2018-08-16T17:01:50.036Z,25.40
2018-08-16T17:04:19.662Z,25.40
2018-08-16T17:06:55.744Z,25.30
2018-08-16T17:09:24.390Z,25.30
2018-08-16T17:11:53.964Z,25.20
2018-08-16T17:14:22.636Z,25.10
2018-08-16T17:16:51.362Z,25.00
2018-08-16T17:19:24.384Z,24.90
2018-08-16T17:21:56.391Z,25.00
2018-08-16T17:24:32.400Z,24.90
2018-08-16T17:27:06.090Z,24.90
2018-08-16T17:29:35.764Z,25.00
2018-08-16T17:32:10.051Z,25.00
2018-08-16T17:34:39.944Z,24.90
2018-08-16T17:37:10.653Z,25.00
2018-08-16T17:39:43.678Z,25.00
2018-08-16T17:42:12.435Z,24.90
2018-08-16T17:44:41.076Z,25.00
2018-08-16T17:47:12.800Z,24.90
2018-08-16T17:49:41.562Z,24.80
2018-08-16T17:52:15.362Z,24.70
2018-08-16T17:54:44.060Z,24.70
2018-08-16T17:57:14.553Z,24.60
2018-08-16T17:59:46.336Z,24.50
2018-08-16T18:02:15.969Z,24.50
2018-08-16T18:04:45.493Z,24.40
2018-08-16T18:07:19.412Z,24.30
2018-08-16T18:09:52.136Z,24.30
2018-08-16T18:12:34.359Z,24.20
2018-08-16T18:15:22.732Z,24.20
2018-08-16T18:17:53.254Z,23.90
2018-08-16T18:20:21.910Z,23.80
2018-08-16T18:22:51.435Z,23.60
2018-08-16T18:25:22.254Z,23.50
2018-08-16T18:27:51.938Z,23.40
2018-08-16T18:30:27.106Z,23.10
2018-08-16T18:33:09.225Z,23.00
2018-08-16T18:35:39.892Z,22.80
2018-08-16T18:41:09.323Z,22.50
2018-08-16T18:43:52.299Z,22.30
2018-08-16T18:46:25.897Z,22.10
2018-08-16T18:48:58.589Z,22.00
2018-08-16T18:51:28.214Z,21.90
2018-08-16T18:53:57.000Z,21.80
2018-08-16T18:56:27.708Z,21.70
2018-08-16T18:58:57.105Z,21.60
2018-08-16T19:01:25.698Z,21.50
2018-08-16T19:03:54.421Z,21.50
2018-08-16T19:06:24.894Z,21.40
2018-08-16T19:08:59.404Z,21.30
2018-08-16T19:11:30.937Z,21.20
2018-08-16T19:14:01.438Z,21.10
2018-08-16T19:16:30.138Z,21.10
2018-08-16T19:19:00.674Z,21.10
2018-08-16T19:21:41.288Z,21.00
2018-08-16T19:24:10.054Z,21.00
2018-08-16T19:26:44.407Z,20.90
2018-08-16T19:29:24.736Z,20.80
2018-08-16T19:32:10.398Z,20.70
2018-08-16T19:34:50.486Z,20.70
2018-08-16T19:37:20.136Z,20.60
2018-08-16T19:39:48.832Z,20.50
2018-08-16T19:42:35.874Z,20.40
2018-08-16T19:45:05.700Z,20.20
2018-08-16T19:47:48.670Z,20.10
2018-08-16T19:50:19.164Z,20.00
2018-08-16T19:52:52.582Z,19.90
2018-08-16T19:55:26.420Z,19.80
2018-08-16T19:58:02.542Z,19.90
2018-08-16T20:00:32.921Z,19.90
2018-08-16T20:03:06.152Z,19.80
2018-08-16T20:05:35.630Z,19.80
2018-08-16T20:08:22.394Z,19.80
2018-08-16T20:10:51.193Z,19.70
2018-08-16T20:13:19.905Z,19.60
2018-08-16T20:15:48.486Z,19.60
2018-08-16T20:18:19.028Z,19.60
2018-08-16T20:20:51.102Z,19.50
2018-08-16T20:23:24.622Z,19.50
2018-08-16T20:25:53.348Z,19.40
2018-08-16T20:28:23.855Z,19.40
2018-08-16T20:30:54.483Z,19.40
2018-08-16T20:33:24.262Z,19.20
2018-08-16T20:35:58.290Z,19.20
2018-08-16T20:38:27.022Z,19.10
2018-08-16T20:40:58.238Z,19.10
2018-08-16T20:43:34.780Z,19.00
2018-08-16T20:46:09.214Z,19.00
2018-08-16T20:48:39.175Z,18.90
2018-08-16T20:51:07.904Z,18.90
2018-08-16T20:53:36.510Z,18.90
2018-08-16T20:56:11.340Z,18.90
2018-08-16T20:58:41.908Z,18.90
2018-08-16T21:01:10.542Z,18.80
2018-08-16T21:03:45.416Z,18.80
2018-08-16T21:06:19.890Z,18.80
2018-08-16T21:08:59.936Z,18.70
2018-08-16T21:11:30.532Z,18.70
2018-08-16T21:14:01.059Z,18.70
2018-08-16T21:16:36.017Z,18.70
2018-08-16T21:19:04.678Z,18.70
2018-08-16T21:21:38.161Z,18.70
2018-08-16T21:24:11.481Z,18.70
2018-08-16T21:26:40.176Z,18.70
2018-08-16T21:29:08.819Z,18.70
2018-08-16T21:31:37.236Z,18.70
2018-08-16T21:34:06.046Z,18.60
2018-08-16T21:36:34.592Z,18.60
2018-08-16T21:39:04.405Z,18.50
2018-08-16T21:41:32.889Z,18.50
2018-08-16T21:44:01.573Z,18.60
2018-08-16T21:46:31.218Z,18.60
2018-08-16T21:51:53.437Z,18.60
2018-08-16T21:54:29.542Z,18.60
2018-08-16T21:57:11.358Z,18.60
2018-08-16T21:59:50.856Z,18.50
2018-08-16T22:02:23.952Z,18.50
2018-08-16T22:04:55.609Z,18.50
2018-08-16T22:08:10.483Z,18.50
2018-08-16T22:10:50.378Z,18.50
2018-08-16T22:13:18.815Z,18.50
2018-08-16T22:15:59.133Z,18.40
2018-08-16T22:18:45.956Z,18.40
2018-08-16T22:21:14.626Z,18.30
2018-08-16T22:23:49.198Z,18.30
2018-08-16T22:26:21.295Z,18.40
2018-08-16T22:29:08.619Z,18.30
2018-08-16T22:31:42.270Z,18.40
2018-08-16T22:34:10.968Z,18.40
2018-08-16T22:36:43.093Z,18.40
2018-08-16T22:39:13.020Z,18.30
2018-08-16T22:41:41.597Z,18.30
2018-08-16T22:44:10.269Z,18.30
2018-08-16T22:46:45.139Z,18.30
2018-08-16T22:49:15.691Z,18.20
2018-08-16T22:51:51.713Z,18.10
2018-08-16T22:54:21.409Z,18.10
2018-08-16T22:56:50.003Z,18.20
2018-08-16T22:59:37.474Z,18.30
2018-08-16T23:02:24.555Z,18.30
2018-08-16T23:04:56.333Z,18.30
2018-08-16T23:07:25.048Z,18.30
2018-08-16T23:09:54.697Z,18.30
2018-08-16T23:12:24.260Z,18.20
2018-08-16T23:14:53.865Z,18.20
2018-08-16T23:17:22.521Z,18.20
2018-08-16T23:20:14.249Z,18.20
2018-08-16T23:22:42.911Z,18.20
2018-08-16T23:25:14.713Z,18.20
2018-08-16T23:27:45.217Z,18.20
2018-08-16T23:30:14.668Z,18.20
2018-08-16T23:32:49.137Z,18.20
2018-08-16T23:35:21.771Z,18.30
2018-08-16T23:37:59.977Z,18.40
2018-08-16T23:43:29.641Z,18.30
2018-08-16T23:45:58.325Z,18.20
2018-08-16T23:48:32.355Z,18.30
2018-08-16T23:51:04.573Z,18.30
2018-08-16T23:53:56.285Z,18.40
2018-08-16T23:56:35.105Z,18.60
2018-08-16T23:59:15.795Z,18.60
